Pickwick Observed Data For Previous 48 Hours

Caption
Day and Hour Reservoir Elevation (behind dam)* Tailwater Elevation (below dam)* Average Hourly Discharge*
8/14/2019 1 AM CDT 414.12 359.77 29,845
8/14/2019 2 AM CDT 414.22 359.86 29,923
8/14/2019 3 AM CDT 414.23 359.86 29,758
8/14/2019 4 AM CDT 414.15 359.89 29,966
8/14/2019 5 AM CDT 414.13 359.88 29,877
8/14/2019 6 AM CDT 414.13 360.04 29,985
8/14/2019 7 AM CDT 414.11 359.91 30,188
8/14/2019 8 AM CDT 414.13 359.92 30,265
8/14/2019 9 AM CDT 414.08 359.88 30,111
8/14/2019 10 AM CDT 414.03 359.86 30,071
8/14/2019 11 AM CDT 414.01 359.93 30,192
8/14/2019 12 PM CDT 414.05 359.94 30,132
8/14/2019 1 PM CDT 414.03 360.12 31,477
8/14/2019 2 PM CDT 413.99 360.39 35,299
8/14/2019 3 PM CDT 413.99 360.47 35,535
8/14/2019 4 PM CDT 414.02 360.47 35,537
8/14/2019 5 PM CDT 413.99 360.49 35,607
8/14/2019 6 PM CDT 413.95 360.56 35,779
8/14/2019 7 PM CDT 414.12 360.59 35,695
8/14/2019 8 PM CDT 414.20 360.58 35,796
8/14/2019 9 PM CDT 414.26 360.66 35,695
8/14/2019 10 PM CDT 414.26 360.70 35,879
8/14/2019 11 PM CDT 414.28 360.80 35,854
8/15/2019 12 AM CDT 414.32 360.72 35,561
8/15/2019 1 AM CDT 414.38 360.72 35,592
8/15/2019 2 AM CDT 414.43 360.72 35,826
8/15/2019 3 AM CDT 414.49 360.71 35,829
8/15/2019 4 AM CDT 414.50 360.69 35,775
8/15/2019 5 AM CDT 414.54 360.67 35,532
8/15/2019 6 AM CDT 414.56 360.72 35,457
8/15/2019 7 AM CDT 414.56 360.65 35,510
8/15/2019 8 AM CDT 414.65 360.73 35,564
8/15/2019 9 AM CDT 414.63 360.61 35,364
8/15/2019 10 AM CDT 414.60 360.60 35,114
8/15/2019 11 AM CDT 414.56 360.61 35,403
8/15/2019 12 PM CDT 414.59 360.56 35,469
8/15/2019 1 PM CDT 414.57 360.56 35,501
8/15/2019 2 PM CDT 414.63 360.51 35,370
8/15/2019 3 PM CDT 414.62 360.55 35,383
8/15/2019 4 PM CDT 414.55 360.54 35,300
8/15/2019 5 PM CDT 414.53 360.46 35,351
8/15/2019 6 PM CDT 414.53 360.44 35,453
8/15/2019 7 PM CDT 414.59 360.51 35,468
8/15/2019 8 PM CDT 414.60 360.51 35,611
8/15/2019 9 PM CDT 414.59 360.44 35,333
8/15/2019 10 PM CDT 414.56 360.53 35,364
8/15/2019 11 PM CDT 414.58 360.46 35,284
8/16/2019 12 AM CDT 414.56 360.44 35,307
8/16/2019 1 AM CDT 414.47 360.45 35,127
8/16/2019 2 AM CDT 414.45 360.41 35,177
8/16/2019 3 AM CDT 414.48 360.52 35,233
8/16/2019 4 AM CDT 414.43 360.44 35,173
8/16/2019 5 AM CDT 414.42 360.40 35,063
8/16/2019 6 AM CDT 414.40 360.39 35,002
8/16/2019 7 AM CDT 414.39 360.46 35,202
8/16/2019 8 AM CDT 414.36 360.44 35,131
8/16/2019 9 AM CDT 414.35 360.44 35,211
8/16/2019 10 AM CDT 414.36 360.48 35,247
8/16/2019 11 AM CDT 414.30 360.37 35,329
8/16/2019 12 PM CDT 414.29 360.33 35,360
8/16/2019 1 PM CDT 414.25 360.30 35,346
8/16/2019 2 PM CDT 414.17 360.40 35,343
8/16/2019 3 PM CDT 414.24 360.44 35,308
8/16/2019 4 PM CDT 414.26 360.32 35,175
8/16/2019 5 PM CDT 414.27 360.31 35,120

Elevations are in feet above sea level. Discharges are in cubic feet per second and are reported at the end of the hour.